Time;durP1;ratioP1;P1;durP2;ratioP2;P2;SDS_P1;SDS_P2;PMS_P1;PMS_P2;Temp;Humidity;BMP_temperature;BMP_pressure;BME280_temperature;BME280_humidity;BME280_pressure;Samples;Min_cycle;Max_cycle;Signal;HPM_P1;HPM_P2
2022/03/23 00:00:46;;;;;;;24.70;15.45;;;;;;;;;;6314119;22;20097;-82
2022/03/23 00:03:13;;;;;;;21.83;13.98;;;;;;;;;;6313600;22;20308;-82
2022/03/23 00:05:40;;;;;;;20.90;14.30;;;;;;;;;;6285590;22;20010;-82
2022/03/23 00:08:06;;;;;;;25.75;14.75;;;;;;;;;;6313637;22;19999;-82
2022/03/23 00:10:32;;;;;;;23.00;13.60;;;;;;;;;;6285839;22;20014;-82
2022/03/23 00:12:59;;;;;;;21.17;14.20;;;;;;;;;;6285582;22;20003;-82
2022/03/23 00:15:25;;;;;;;23.55;14.85;;;;;;;;;;6314054;22;19999;-82
2022/03/23 00:17:51;;;;;;;24.25;15.38;;;;;;;;;;6313912;22;20003;-82
2022/03/23 00:20:17;;;;;;;22.60;14.45;;;;;;;;;;6287751;22;20003;-82
2022/03/23 00:22:43;;;;;;;21.88;14.90;;;;;;;;;;6286246;22;19999;-82
2022/03/23 00:25:10;;;;;;;28.10;16.08;;;;;;;;;;6312478;22;20002;-82
2022/03/23 00:27:36;;;;;;;20.98;14.07;;;;;;;;;;6285786;22;20064;-82
2022/03/23 00:30:03;;;;;;;23.17;14.82;;;;;;;;;;6315560;22;20027;-82
2022/03/23 00:32:29;;;;;;;21.23;12.95;;;;;;;;;;6316523;22;20056;-82
2022/03/23 00:34:55;;;;;;;24.85;14.82;;;;;;;;;;6285863;22;20003;-82
2022/03/23 00:37:21;;;;;;;23.92;14.45;;;;;;;;;;6313825;22;20011;-83
2022/03/23 00:39:47;;;;;;;22.20;13.60;;;;;;;;;;6312783;22;20003;-82
2022/03/23 00:42:13;;;;;;;23.00;13.60;;;;;;;;;;6312970;22;19992;-82
2022/03/23 00:44:39;;;;;;;22.17;14.02;;;;;;;;;;6312567;22;20304;-82
2022/03/23 00:47:05;;;;;;;22.33;14.05;;;;;;;;;;6285679;22;20049;-82
2022/03/23 00:49:31;;;;;;;26.10;14.93;;;;;;;;;;6285600;22;20424;-82
2022/03/23 00:51:58;;;;;;;22.40;13.68;;;;;;;;;;6285737;22;20086;-82
2022/03/23 00:54:24;;;;;;;22.48;14.68;;;;;;;;;;6312939;22;19995;-83
2022/03/23 00:56:51;;;;;;;23.15;13.07;;;;;;;;;;6285406;22;20086;-82
2022/03/23 00:59:19;;;;;;;24.77;15.57;;;;;;;;;;6312974;22;20086;-82
2022/03/23 01:01:45;;;;;;;21.98;14.77;;;;;;;;;;6285749;22;20003;-82
2022/03/23 01:04:12;;;;;;;25.90;14.77;;;;;;;;;;6312775;22;20006;-82
2022/03/23 01:06:38;;;;;;;24.73;14.15;;;;;;;;;;6285354;22;20347;-82
2022/03/23 01:09:05;;;;;;;22.27;13.98;;;;;;;;;;6312946;22;20044;-82
2022/03/23 01:11:31;;;;;;;20.77;12.77;;;;;;;;;;6312229;22;20006;-82
2022/03/23 01:13:57;;;;;;;22.20;13.57;;;;;;;;;;6313022;22;20002;-82
2022/03/23 01:16:23;;;;;;;18.98;12.60;;;;;;;;;;6285645;22;20082;-82
2022/03/23 01:18:49;;;;;;;20.25;13.65;;;;;;;;;;6284837;22;20094;-82
2022/03/23 01:21:16;;;;;;;22.67;14.20;;;;;;;;;;6312476;22;19999;-82
2022/03/23 01:23:43;;;;;;;19.45;12.98;;;;;;;;;;6285898;22;20003;-82
2022/03/23 01:26:09;;;;;;;20.52;12.85;;;;;;;;;;6285254;22;19999;-82
2022/03/23 01:28:35;;;;;;;21.20;13.27;;;;;;;;;;6311540;22;19999;-82
2022/03/23 01:31:01;;;;;;;22.05;12.68;;;;;;;;;;6312226;22;20003;-82
2022/03/23 01:33:27;;;;;;;18.92;13.05;;;;;;;;;;6312106;22;20074;-82
2022/03/23 01:35:54;;;;;;;21.33;12.50;;;;;;;;;;6284064;22;20014;-82
2022/03/23 01:38:20;;;;;;;19.77;13.27;;;;;;;;;;6284533;22;20346;-82
2022/03/23 01:40:46;;;;;;;20.65;12.55;;;;;;;;;;6312070;22;20003;-82
2022/03/23 01:43:12;;;;;;;21.95;12.80;;;;;;;;;;6311710;22;20003;-82
2022/03/23 01:45:38;;;;;;;23.77;14.65;;;;;;;;;;6283503;22;20078;-82
2022/03/23 01:48:04;;;;;;;22.17;13.38;;;;;;;;;;6311086;22;20048;-82
2022/03/23 01:50:30;;;;;;;22.13;13.45;;;;;;;;;;6284448;22;20003;-82
2022/03/23 01:52:56;;;;;;;17.63;12.45;;;;;;;;;;6283776;22;20014;-82
2022/03/23 01:55:23;;;;;;;20.35;13.05;;;;;;;;;;6283990;22;20397;-82
2022/03/23 02:00:52;;;;;;;23.60;13.10;;;;;;;;;;5828075;22;20102;-82
2022/03/23 02:03:18;;;;;;;22.38;14.00;;;;;;;;;;6311848;22;20305;-82
2022/03/23 02:05:54;;;;;;;24.63;12.68;;;;;;;;;;6283721;22;20006;-82
2022/03/23 02:11:24;;;;;;;19.80;11.88;;;;;;;;;;6310375;22;20029;-82
2022/03/23 02:13:50;;;;;;;21.05;12.98;;;;;;;;;;6310612;22;20052;-82
2022/03/23 02:16:16;;;;;;;22.92;13.13;;;;;;;;;;6283692;22;20521;-82
2022/03/23 02:18:42;;;;;;;22.48;12.98;;;;;;;;;;6283488;22;20007;-82
2022/03/23 02:21:08;;;;;;;21.95;13.27;;;;;;;;;;6311166;22;20003;-82
2022/03/23 02:23:34;;;;;;;22.58;12.50;;;;;;;;;;6310789;22;20003;-82
2022/03/23 02:26:01;;;;;;;20.52;13.18;;;;;;;;;;6310575;22;20121;-82
2022/03/23 02:28:28;;;;;;;22.80;13.95;;;;;;;;;;6311019;22;20000;-82
2022/03/23 02:30:54;;;;;;;20.67;13.65;;;;;;;;;;6310438;22;19995;-82
2022/03/23 02:33:23;;;;;;;22.02;13.77;;;;;;;;;;6310869;22;20001;-82
2022/03/23 02:35:49;;;;;;;21.52;12.50;;;;;;;;;;6310312;22;20010;-82
2022/03/23 02:38:16;;;;;;;26.13;14.13;;;;;;;;;;6310893;22;20322;-82
2022/03/23 02:40:42;;;;;;;21.08;14.20;;;;;;;;;;6310877;22;20381;-82
2022/03/23 02:43:08;;;;;;;19.10;12.20;;;;;;;;;;6310735;22;20027;-82
2022/03/23 02:45:35;;;;;;;22.33;13.40;;;;;;;;;;6311102;22;20019;-82
2022/03/23 02:48:03;;;;;;;24.42;14.30;;;;;;;;;;6311439;22;20051;-82
2022/03/23 02:50:29;;;;;;;21.42;13.70;;;;;;;;;;6310573;22;20366;-82
2022/03/23 03:04:25;;;;;;;19.08;12.90;;;;;;;;;;6186157;23;20345;-82
2022/03/23 03:06:51;;;;;;;22.25;14.15;;;;;;;;;;6185319;23;20008;-82
2022/03/23 03:09:19;;;;;;;23.83;13.88;;;;;;;;;;6160220;23;20009;-82
2022/03/23 03:11:47;;;;;;;23.45;14.00;;;;;;;;;;6160962;23;20008;-81
2022/03/23 03:14:13;;;;;;;24.13;13.65;;;;;;;;;;6160798;23;20009;-82
2022/03/23 03:16:39;;;;;;;24.80;14.52;;;;;;;;;;6185231;23;20005;-82
2022/03/23 03:19:11;;;;;;;23.25;13.57;;;;;;;;;;6184945;23;20034;-82
2022/03/23 03:21:37;;;;;;;23.92;15.30;;;;;;;;;;6160583;23;20084;-82
2022/03/23 03:24:03;;;;;;;25.52;15.70;;;;;;;;;;6186894;23;20112;-82
2022/03/23 03:26:32;;;;;;;21.65;13.77;;;;;;;;;;6188300;23;20056;-82
2022/03/23 03:28:58;;;;;;;24.35;15.05;;;;;;;;;;6162419;23;20016;-82
2022/03/23 03:31:24;;;;;;;20.17;14.10;;;;;;;;;;6162343;23;20005;-82
2022/03/23 03:33:50;;;;;;;22.63;14.90;;;;;;;;;;6187707;23;20005;-82
2022/03/23 03:36:17;;;;;;;24.50;14.77;;;;;;;;;;6187469;23;20040;-82
2022/03/23 03:38:44;;;;;;;23.73;15.07;;;;;;;;;;6187009;23;20487;-82
2022/03/23 03:41:10;;;;;;;24.90;15.18;;;;;;;;;;6268700;22;20000;-82
2022/03/23 03:43:37;;;;;;;24.10;14.43;;;;;;;;;;6287568;22;19999;-82
2022/03/23 03:46:06;;;;;;;25.27;14.65;;;;;;;;;;6286808;22;19999;-82
2022/03/23 03:48:32;;;;;;;24.48;14.90;;;;;;;;;;6312689;22;20427;-82
2022/03/23 03:50:59;;;;;;;26.75;16.25;;;;;;;;;;6312763;22;19995;-82
2022/03/23 03:53:25;;;;;;;25.90;15.73;;;;;;;;;;6285344;22;20003;-82
2022/03/23 03:55:51;;;;;;;26.88;16.17;;;;;;;;;;6285375;22;20064;-82
2022/03/23 03:58:17;;;;;;;26.27;16.23;;;;;;;;;;6312345;22;20082;-82
2022/03/23 04:00:44;;;;;;;30.98;17.08;;;;;;;;;;6284454;22;20062;-82
2022/03/23 04:03:10;;;;;;;26.58;16.40;;;;;;;;;;6312223;22;19995;-82
2022/03/23 04:05:36;;;;;;;32.83;16.80;;;;;;;;;;6313295;22;20002;-82
2022/03/23 04:08:02;;;;;;;25.58;14.57;;;;;;;;;;6312372;22;19996;-82
2022/03/23 04:10:29;;;;;;;27.52;16.13;;;;;;;;;;6284573;22;20014;-82
2022/03/23 04:12:55;;;;;;;27.02;16.05;;;;;;;;;;6284445;22;20035;-82
2022/03/23 04:15:21;;;;;;;25.20;14.43;;;;;;;;;;6313082;22;20011;-82
2022/03/23 04:17:47;;;;;;;26.20;15.73;;;;;;;;;;6286122;22;20003;-82
2022/03/23 04:20:14;;;;;;;24.48;14.68;;;;;;;;;;6312353;22;20000;-82
2022/03/23 04:22:40;;;;;;;24.27;14.52;;;;;;;;;;6313211;22;20381;-82
2022/03/23 04:25:10;;;;;;;26.70;16.20;;;;;;;;;;6285344;22;20006;-82
2022/03/23 04:27:46;;;;;;;24.40;15.43;;;;;;;;;;6312467;22;20040;-83
2022/03/23 04:30:12;;;;;;;23.33;14.70;;;;;;;;;;6312394;22;20328;-82
2022/03/23 04:32:38;;;;;;;23.95;15.13;;;;;;;;;;6311979;22;20083;-82
2022/03/23 04:35:08;;;;;;;27.60;15.82;;;;;;;;;;6311651;22;19999;-83
2022/03/23 04:37:34;;;;;;;26.33;15.00;;;;;;;;;;6311742;22;20007;-83
2022/03/23 04:40:00;;;;;;;22.05;13.57;;;;;;;;;;6284318;22;20059;-83
2022/03/23 04:42:26;;;;;;;26.73;14.13;;;;;;;;;;6310196;22;20002;-82
2022/03/23 04:44:52;;;;;;;24.02;14.50;;;;;;;;;;6310021;22;20025;-83
2022/03/23 04:47:18;;;;;;;24.85;14.95;;;;;;;;;;6283662;22;20077;-82
2022/03/23 04:49:44;;;;;;;24.95;14.55;;;;;;;;;;6311029;22;20435;-83
2022/03/23 04:52:12;;;;;;;24.63;14.23;;;;;;;;;;6311471;22;20027;-83
2022/03/23 04:54:38;;;;;;;22.35;14.32;;;;;;;;;;6310806;22;20004;-83
2022/03/23 04:57:04;;;;;;;22.15;13.88;;;;;;;;;;6311711;22;20394;-83
2022/03/23 04:59:30;;;;;;;25.52;15.02;;;;;;;;;;6282880;22;20010;-82
2022/03/23 05:01:56;;;;;;;23.08;13.32;;;;;;;;;;6278000;22;20034;-82
2022/03/23 05:04:22;;;;;;;24.10;14.50;;;;;;;;;;6278228;22;20011;-82
2022/03/23 05:06:48;;;;;;;22.40;13.52;;;;;;;;;;6278149;22;20004;-82
2022/03/23 05:09:14;;;;;;;23.25;14.32;;;;;;;;;;6280368;22;20085;-82
2022/03/23 05:11:40;;;;;;;24.80;13.77;;;;;;;;;;6278692;22;20015;-82
2022/03/23 05:14:07;;;;;;;21.35;14.20;;;;;;;;;;6277717;22;20014;-83
2022/03/23 05:16:33;;;;;;;23.60;13.73;;;;;;;;;;6279202;22;20038;-83
2022/03/23 05:18:59;;;;;;;22.70;14.45;;;;;;;;;;6281355;22;20012;-83
2022/03/23 05:21:25;;;;;;;22.65;14.63;;;;;;;;;;6300374;22;20013;-81
2022/03/23 05:23:51;;;;;;;26.95;15.73;;;;;;;;;;6301655;22;19991;-83
2022/03/23 05:26:17;;;;;;;24.77;14.15;;;;;;;;;;6301968;22;20047;-83
2022/03/23 05:28:44;;;;;;;20.40;12.52;;;;;;;;;;6299616;22;20082;-83
2022/03/23 05:31:10;;;;;;;23.27;13.85;;;;;;;;;;6299217;22;20006;-83
2022/03/23 05:33:36;;;;;;;24.52;15.32;;;;;;;;;;6285555;22;20010;-83
2022/03/23 05:36:02;;;;;;;21.42;13.00;;;;;;;;;;6284144;22;20026;-84
2022/03/23 05:38:28;;;;;;;25.02;14.32;;;;;;;;;;6283030;22;20015;-82
2022/03/23 05:40:54;;;;;;;25.10;13.57;;;;;;;;;;6282678;22;20018;-82
2022/03/23 05:43:20;;;;;;;24.17;14.25;;;;;;;;;;6280958;22;20000;-82
2022/03/23 05:45:46;;;;;;;23.50;15.00;;;;;;;;;;6282685;22;20260;-82
2022/03/23 05:48:12;;;;;;;29.52;16.80;;;;;;;;;;6282621;22;20000;-82
2022/03/23 05:50:38;;;;;;;27.10;16.10;;;;;;;;;;6280500;22;20272;-82
2022/03/23 05:53:07;;;;;;;24.92;16.38;;;;;;;;;;6281341;22;20022;-82
2022/03/23 05:55:33;;;;;;;30.10;18.83;;;;;;;;;;6281635;22;20003;-82
2022/03/23 05:57:59;;;;;;;26.65;18.55;;;;;;;;;;6285708;22;20023;-81
2022/03/23 06:00:25;;;;;;;37.22;19.70;;;;;;;;;;6313463;22;20012;-81
2022/03/23 06:02:51;;;;;;;28.98;18.83;;;;;;;;;;6331827;22;20034;-81
2022/03/23 06:05:17;;;;;;;30.05;17.92;;;;;;;;;;6332727;22;20009;-82
2022/03/23 06:07:43;;;;;;;30.55;18.35;;;;;;;;;;6327619;22;20341;-82
2022/03/23 06:10:09;;;;;;;28.30;16.52;;;;;;;;;;6311572;22;19995;-82
2022/03/23 06:12:35;;;;;;;25.45;16.98;;;;;;;;;;6312310;22;20001;-82
2022/03/23 06:15:01;;;;;;;26.40;16.95;;;;;;;;;;6313171;22;19999;-82
2022/03/23 06:17:28;;;;;;;25.70;17.48;;;;;;;;;;6313637;22;19999;-83
2022/03/23 06:19:54;;;;;;;28.90;17.85;;;;;;;;;;6311976;22;20141;-82
2022/03/23 06:22:20;;;;;;;24.55;16.63;;;;;;;;;;6285499;22;20466;-82
2022/03/23 06:24:46;;;;;;;36.20;18.40;;;;;;;;;;6313497;22;19995;-81
2022/03/23 06:27:12;;;;;;;31.75;18.42;;;;;;;;;;6286029;22;20003;-81
2022/03/23 06:29:39;;;;;;;29.88;20.13;;;;;;;;;;6312726;22;20431;-81
2022/03/23 06:32:05;;;;;;;35.55;18.77;;;;;;;;;;6286008;22;20098;-81
2022/03/23 06:34:31;;;;;;;29.00;18.77;;;;;;;;;;6313732;22;20011;-81
2022/03/23 06:36:58;;;;;;;32.30;21.08;;;;;;;;;;6285873;22;20007;-82
2022/03/23 06:39:24;;;;;;;36.42;20.63;;;;;;;;;;6313086;22;20006;-82
2022/03/23 06:41:50;;;;;;;30.98;19.02;;;;;;;;;;6313595;22;20021;-82
2022/03/23 06:44:17;;;;;;;30.33;17.90;;;;;;;;;;6313665;22;20006;-82
2022/03/23 06:46:43;;;;;;;30.88;17.67;;;;;;;;;;6313852;22;19995;-82
2022/03/23 06:49:09;;;;;;;32.33;17.90;;;;;;;;;;6288848;22;20003;-83
2022/03/23 06:51:35;;;;;;;30.17;18.40;;;;;;;;;;6315511;22;20006;-82
2022/03/23 06:54:01;;;;;;;26.38;17.02;;;;;;;;;;6285477;22;20030;-82
2022/03/23 06:56:27;;;;;;;26.98;17.98;;;;;;;;;;6312641;22;20257;-82
2022/03/23 06:58:53;;;;;;;30.77;19.42;;;;;;;;;;6286338;22;20003;-82
2022/03/23 07:01:19;;;;;;;31.77;19.73;;;;;;;;;;6312049;22;20418;-82
2022/03/23 07:03:45;;;;;;;27.85;19.48;;;;;;;;;;6313676;22;20090;-82
2022/03/23 07:06:11;;;;;;;35.55;19.95;;;;;;;;;;6311469;22;20110;-83
2022/03/23 07:11:22;;;;;;;25.30;18.73;;;;;;;;;;6314360;22;20060;-82
2022/03/23 07:13:48;;;;;;;29.50;17.98;;;;;;;;;;6315681;22;20094;-83
2022/03/23 07:16:14;;;;;;;29.20;18.70;;;;;;;;;;6313613;22;20387;-82
2022/03/23 07:18:40;;;;;;;28.02;17.75;;;;;;;;;;6314578;22;19996;-82
2022/03/23 07:21:06;;;;;;;29.13;18.08;;;;;;;;;;6312046;22;20139;-82
2022/03/23 07:23:34;;;;;;;26.88;18.45;;;;;;;;;;6286158;22;20000;-83
2022/03/23 07:26:01;;;;;;;23.60;18.17;;;;;;;;;;6314070;22;20381;-82
2022/03/23 07:28:27;;;;;;;25.95;17.40;;;;;;;;;;6314558;22;20002;-82
2022/03/23 07:30:56;;;;;;;25.92;16.45;;;;;;;;;;6312775;22;20004;-83
2022/03/23 07:33:22;;;;;;;27.55;18.55;;;;;;;;;;6314480;22;20086;-84
2022/03/23 07:35:48;;;;;;;28.33;18.92;;;;;;;;;;6285114;22;20057;-82
2022/03/23 07:38:14;;;;;;;26.27;19.40;;;;;;;;;;6313086;22;19995;-82
2022/03/23 07:40:42;;;;;;;28.95;18.15;;;;;;;;;;6312530;22;20003;-83
2022/03/23 07:43:08;;;;;;;28.73;17.52;;;;;;;;;;6285161;22;20010;-83
2022/03/23 07:45:34;;;;;;;26.90;17.85;;;;;;;;;;6313055;22;20006;-83
2022/03/23 07:48:00;;;;;;;29.40;18.88;;;;;;;;;;6284741;22;20019;-82
2022/03/23 07:50:27;;;;;;;28.17;18.27;;;;;;;;;;6284945;22;20003;-82
2022/03/23 07:52:53;;;;;;;28.20;18.48;;;;;;;;;;6284685;22;19999;-83
2022/03/23 07:55:19;;;;;;;24.58;17.17;;;;;;;;;;6313018;22;19999;-83
2022/03/23 07:57:46;;;;;;;23.45;17.73;;;;;;;;;;6285215;22;20039;-83
2022/03/23 08:00:13;;;;;;;23.30;17.60;;;;;;;;;;6311660;22;20082;-83
2022/03/23 08:02:40;;;;;;;29.80;19.17;;;;;;;;;;6312437;22;20002;-83
2022/03/23 08:05:06;;;;;;;25.88;17.70;;;;;;;;;;6311756;22;19999;-83
2022/03/23 08:07:32;;;;;;;23.83;17.75;;;;;;;;;;6312293;22;20022;-83
2022/03/23 08:09:58;;;;;;;25.15;16.52;;;;;;;;;;6313697;22;20495;-82
2022/03/23 08:12:25;;;;;;;26.20;17.60;;;;;;;;;;6313609;22;20003;-83
2022/03/23 08:14:51;;;;;;;22.33;16.67;;;;;;;;;;6313031;22;20066;-83
2022/03/23 08:17:17;;;;;;;22.85;16.65;;;;;;;;;;6314090;22;20010;-82
2022/03/23 08:19:43;;;;;;;26.42;15.48;;;;;;;;;;6313184;22;20089;-83
2022/03/23 08:22:11;;;;;;;23.02;17.05;;;;;;;;;;6285979;22;20003;-83
2022/03/23 08:24:37;;;;;;;24.10;16.45;;;;;;;;;;6314078;22;20018;-83
2022/03/23 08:27:03;;;;;;;27.33;18.08;;;;;;;;;;6313835;22;20002;-83
2022/03/23 08:29:29;;;;;;;24.50;17.00;;;;;;;;;;6313306;22;20033;-82
2022/03/23 08:31:55;;;;;;;25.33;17.30;;;;;;;;;;6285392;22;19999;-82
2022/03/23 08:34:21;;;;;;;24.08;17.38;;;;;;;;;;6313867;22;20007;-83
2022/03/23 08:36:47;;;;;;;27.65;17.95;;;;;;;;;;6312720;22;20006;-82
2022/03/23 08:39:13;;;;;;;25.92;17.73;;;;;;;;;;6313217;22;20011;-83
2022/03/23 08:41:39;;;;;;;23.55;15.27;;;;;;;;;;6313415;22;20038;-83
2022/03/23 08:44:05;;;;;;;19.88;15.50;;;;;;;;;;6313194;22;20465;-83
2022/03/23 08:46:32;;;;;;;23.30;15.68;;;;;;;;;;6313457;22;20018;-83
2022/03/23 08:48:58;;;;;;;23.38;15.63;;;;;;;;;;6312928;22;20395;-82
2022/03/23 08:51:24;;;;;;;20.98;16.30;;;;;;;;;;6313356;22;20025;-82
2022/03/23 08:53:50;;;;;;;22.40;15.27;;;;;;;;;;6313620;22;20049;-82
2022/03/23 08:56:16;;;;;;;21.83;16.05;;;;;;;;;;6312600;22;20078;-82
2022/03/23 08:58:47;;;;;;;20.25;16.20;;;;;;;;;;6313325;22;20003;-83
2022/03/23 09:01:13;;;;;;;25.45;16.17;;;;;;;;;;6285500;22;20015;-82
2022/03/23 09:03:39;;;;;;;20.65;14.98;;;;;;;;;;6285840;22;20000;-83
2022/03/23 09:06:05;;;;;;;20.48;15.85;;;;;;;;;;6312575;22;19999;-82
2022/03/23 09:08:32;;;;;;;22.60;15.32;;;;;;;;;;6313217;22;20082;-83
2022/03/23 09:10:59;;;;;;;20.98;14.77;;;;;;;;;;6312993;22;19999;-83
2022/03/23 09:13:25;;;;;;;24.50;15.25;;;;;;;;;;6312856;22;20002;-82
2022/03/23 09:15:51;;;;;;;23.77;15.65;;;;;;;;;;6285278;22;20007;-82
2022/03/23 09:18:17;;;;;;;19.25;14.18;;;;;;;;;;6312338;22;20049;-82
2022/03/23 09:20:43;;;;;;;27.27;15.45;;;;;;;;;;6313367;22;20003;-82
2022/03/23 09:23:09;;;;;;;20.55;15.10;;;;;;;;;;6312998;22;20385;-82
2022/03/23 09:25:36;;;;;;;22.25;16.48;;;;;;;;;;6313438;22;20074;-82
2022/03/23 09:28:03;;;;;;;21.23;15.60;;;;;;;;;;6313095;22;19999;-82
2022/03/23 09:30:29;;;;;;;23.27;17.33;;;;;;;;;;6313336;22;20065;-82
2022/03/23 09:32:57;;;;;;;23.75;16.60;;;;;;;;;;6312407;22;20357;-82
2022/03/23 09:35:23;;;;;;;21.17;14.55;;;;;;;;;;6312786;22;20006;-82
2022/03/23 09:37:50;;;;;;;24.70;15.93;;;;;;;;;;6313235;22;20010;-82
2022/03/23 09:40:17;;;;;;;21.30;15.38;;;;;;;;;;6313539;22;19999;-82
2022/03/23 09:42:43;;;;;;;21.80;15.38;;;;;;;;;;6313051;22;20006;-82
2022/03/23 09:45:13;;;;;;;20.27;15.88;;;;;;;;;;6312168;22;20000;-82
2022/03/23 09:47:39;;;;;;;22.65;16.13;;;;;;;;;;6312904;22;19999;-82
2022/03/23 09:50:05;;;;;;;20.02;15.65;;;;;;;;;;6315106;22;20078;-82
2022/03/23 09:52:32;;;;;;;20.52;16.02;;;;;;;;;;6317333;22;19999;-82
2022/03/23 09:54:58;;;;;;;22.17;16.27;;;;;;;;;;6285629;22;20007;-82
2022/03/23 09:57:24;;;;;;;21.15;15.55;;;;;;;;;;6312752;22;19999;-83
2022/03/23 09:59:50;;;;;;;21.33;15.43;;;;;;;;;;6285239;22;20088;-82
2022/03/23 10:02:35;;;;;;;22.38;15.10;;;;;;;;;;6312251;22;20068;-82
2022/03/23 10:05:19;;;;;;;18.48;15.38;;;;;;;;;;6309611;22;19999;-81
2022/03/23 10:08:04;;;;;;;21.88;15.10;;;;;;;;;;6311655;22;20071;-83
2022/03/23 10:10:30;;;;;;;22.80;16.02;;;;;;;;;;6312001;22;20477;-83
2022/03/23 10:13:16;;;;;;;22.10;17.60;;;;;;;;;;6312461;22;19999;-82
2022/03/23 10:16:02;;;;;;;25.52;16.50;;;;;;;;;;6312081;22;20054;-82
2022/03/23 10:18:52;;;;;;;22.77;16.83;;;;;;;;;;6311423;22;20010;-83
2022/03/23 10:21:19;;;;;;;21.30;15.40;;;;;;;;;;6312787;22;20007;-83
2022/03/23 10:23:51;;;;;;;19.55;15.63;;;;;;;;;;6311825;22;19995;-82
2022/03/23 10:26:18;;;;;;;19.02;14.70;;;;;;;;;;6310391;22;19995;-83
2022/03/23 10:28:44;;;;;;;20.67;15.80;;;;;;;;;;6283551;22;20011;-82
2022/03/23 10:31:15;;;;;;;21.83;16.60;;;;;;;;;;6283072;22;20434;-82
2022/03/23 10:33:41;;;;;;;20.13;16.05;;;;;;;;;;6309060;22;20003;-82
2022/03/23 10:36:07;;;;;;;22.95;16.65;;;;;;;;;;6311685;22;20010;-83
2022/03/23 10:38:38;;;;;;;24.63;17.50;;;;;;;;;;6311820;22;20395;-83
2022/03/23 10:41:11;;;;;;;19.38;15.80;;;;;;;;;;6311065;22;20312;-83
2022/03/23 10:43:38;;;;;;;20.20;16.85;;;;;;;;;;6311633;22;20007;-82
2022/03/23 10:46:11;;;;;;;22.45;17.08;;;;;;;;;;6284096;22;20373;-82
2022/03/23 10:48:37;;;;;;;;;;;;;;;;;;6311927;22;20071;-82
2022/03/23 10:51:03;;;;;;;23.25;16.08;;;;;;;;;;6310626;22;19899;-82
2022/03/23 10:53:39;;;;;;;22.52;16.33;;;;;;;;;;6311271;22;20042;-83
2022/03/23 10:56:06;;;;;;;20.05;16.45;;;;;;;;;;6311059;22;19999;-83
2022/03/23 10:58:34;;;;;;;21.05;18.02;;;;;;;;;;6311422;22;20095;-82
2022/03/23 11:01:03;;;;;;;20.35;16.38;;;;;;;;;;6310136;22;20102;-82
2022/03/23 11:03:40;;;;;;;22.10;17.42;;;;;;;;;;6311932;22;20005;-83
2022/03/23 11:06:07;;;;;;;20.05;15.93;;;;;;;;;;6311326;22;20002;-84
2022/03/23 11:08:33;;;;;;;21.90;15.88;;;;;;;;;;6311954;22;19999;-84
2022/03/23 11:16:34;;;;;;;21.08;17.42;;;;;;;;;;6313915;22;20099;-83
2022/03/23 11:19:10;;;;;;;21.00;17.02;;;;;;;;;;6287412;22;20343;-83
2022/03/23 11:21:56;;;;;;;22.13;18.10;;;;;;;;;;6312436;22;20447;-82
2022/03/23 11:24:22;;;;;;;22.75;17.55;;;;;;;;;;6284330;22;20003;-83
2022/03/23 11:26:49;;;;;;;22.35;18.60;;;;;;;;;;6311601;22;19995;-82
2022/03/23 11:29:16;;;;;;;22.27;18.17;;;;;;;;;;6311448;22;20007;-82
2022/03/23 11:31:42;;;;;;;21.80;17.10;;;;;;;;;;6312018;22;20003;-82
2022/03/23 11:34:09;;;;;;;22.98;17.20;;;;;;;;;;6311665;22;19999;-83
2022/03/23 11:36:35;;;;;;;20.65;18.45;;;;;;;;;;6311787;22;20003;-83
2022/03/23 11:39:04;;;;;;;22.70;18.27;;;;;;;;;;6311168;22;20489;-83
2022/03/23 11:41:30;;;;;;;22.92;17.30;;;;;;;;;;6284026;22;20439;-83
2022/03/23 11:43:57;;;;;;;22.27;16.63;;;;;;;;;;6312884;22;20003;-83
2022/03/23 11:46:23;;;;;;;22.50;17.92;;;;;;;;;;6313939;22;20068;-83
2022/03/23 11:49:13;;;;;;;22.00;17.20;;;;;;;;;;6287672;22;20003;-83
2022/03/23 11:51:57;;;;;;;23.80;18.60;;;;;;;;;;6313530;22;20003;-84
2022/03/23 11:54:26;;;;;;;22.55;17.60;;;;;;;;;;6313087;22;20007;-83
2022/03/23 11:56:57;;;;;;;25.17;18.25;;;;;;;;;;6285959;22;20011;-82
2022/03/23 11:59:23;;;;;;;21.58;16.35;;;;;;;;;;6313662;22;20195;-83
2022/03/23 12:01:51;;;;;;;18.90;15.98;;;;;;;;;;6313103;22;20019;-84
2022/03/23 12:04:21;;;;;;;22.23;15.02;;;;;;;;;;6286277;22;20570;-83
2022/03/23 12:06:57;;;;;;;19.65;14.48;;;;;;;;;;6313435;22;20006;-82
2022/03/23 12:09:35;;;;;;;20.45;13.93;;;;;;;;;;6285999;22;20012;-83
2022/03/23 12:12:02;;;;;;;16.83;13.98;;;;;;;;;;6311410;22;20078;-81
2022/03/23 12:14:30;;;;;;;15.07;12.75;;;;;;;;;;6313428;22;19999;-82
2022/03/23 12:16:56;;;;;;;16.33;12.80;;;;;;;;;;6313236;22;19999;-83
2022/03/23 12:19:26;;;;;;;19.08;13.00;;;;;;;;;;6312906;22;20064;-84
2022/03/23 12:22:07;;;;;;;16.98;13.38;;;;;;;;;;6313238;22;20332;-82
2022/03/23 12:24:36;;;;;;;16.92;12.98;;;;;;;;;;6313773;22;20076;-82
2022/03/23 12:27:07;;;;;;;18.40;12.60;;;;;;;;;;6313928;22;20454;-83
2022/03/23 12:29:36;;;;;;;16.77;12.93;;;;;;;;;;6313553;22;20010;-83
2022/03/23 12:32:08;;;;;;;14.70;12.82;;;;;;;;;;6286567;22;20490;-82
2022/03/23 12:34:35;;;;;;;19.07;13.90;;;;;;;;;;6312708;22;20147;-83
2022/03/23 12:37:09;;;;;;;17.73;13.23;;;;;;;;;;6314742;22;20055;-83
2022/03/23 12:39:37;;;;;;;17.10;14.02;;;;;;;;;;6313806;22;20018;-81
2022/03/23 12:42:12;;;;;;;17.58;14.07;;;;;;;;;;6313353;22;19999;-81
2022/03/23 12:44:38;;;;;;;13.95;12.43;;;;;;;;;;6314389;22;20069;-82
2022/03/23 12:47:06;;;;;;;20.20;13.65;;;;;;;;;;6314149;22;20010;-81
2022/03/23 12:58:06;;;;;;;15.82;13.13;;;;;;;;;;6315029;22;20014;-84
2022/03/23 13:00:32;;;;;;;17.27;13.20;;;;;;;;;;6286205;22;20336;-84
2022/03/23 13:03:07;;;;;;;15.88;12.18;;;;;;;;;;6313547;22;20006;-84
2022/03/23 13:05:34;;;;;;;16.48;13.15;;;;;;;;;;6286529;22;20004;-84
2022/03/23 13:08:00;;;;;;;16.40;12.98;;;;;;;;;;6313745;22;20056;-83
2022/03/23 13:10:26;;;;;;;15.20;12.82;;;;;;;;;;6292425;22;20003;-82
2022/03/23 13:13:08;;;;;;;17.02;13.10;;;;;;;;;;6333437;22;20064;-82
2022/03/23 13:15:35;;;;;;;17.63;12.32;;;;;;;;;;6332878;22;20013;-82
2022/03/23 13:18:01;;;;;;;14.18;12.32;;;;;;;;;;6334518;22;19988;-80
2022/03/23 13:20:31;;;;;;;14.63;12.10;;;;;;;;;;6334708;22;20010;-82
2022/03/23 13:22:57;;;;;;;17.52;12.02;;;;;;;;;;6327158;22;20003;-84
2022/03/23 13:25:23;;;;;;;17.25;12.90;;;;;;;;;;6313781;22;20003;-84
2022/03/23 13:27:50;;;;;;;14.65;11.93;;;;;;;;;;6288224;22;20029;-81
2022/03/23 13:30:23;;;;;;;15.27;12.10;;;;;;;;;;6314693;22;20101;-80
2022/03/23 13:32:50;;;;;;;15.88;11.52;;;;;;;;;;6286663;22;20335;-83
2022/03/23 13:35:18;;;;;;;14.18;11.23;;;;;;;;;;6285745;22;19999;-80
2022/03/23 13:37:56;;;;;;;13.90;11.25;;;;;;;;;;6285852;22;20000;-84
2022/03/23 13:43:27;;;;;;;18.50;12.07;;;;;;;;;;6313746;22;20102;-83
2022/03/23 13:45:58;;;;;;;16.85;11.15;;;;;;;;;;6313788;22;19999;-82
2022/03/23 13:48:26;;;;;;;14.98;11.95;;;;;;;;;;6297276;22;19987;-81
2022/03/23 13:50:53;;;;;;;15.38;11.52;;;;;;;;;;6331908;22;20071;-81
2022/03/23 13:53:20;;;;;;;15.00;11.75;;;;;;;;;;6334135;22;20082;-80
2022/03/23 13:55:47;;;;;;;13.60;10.90;;;;;;;;;;6334319;22;20003;-82
2022/03/23 13:58:16;;;;;;;14.25;11.40;;;;;;;;;;6321906;22;20007;-83
2022/03/23 14:00:43;;;;;;;15.68;11.18;;;;;;;;;;6314759;22;20007;-84
2022/03/23 14:03:09;;;;;;;16.38;11.75;;;;;;;;;;6312057;22;19995;-83
2022/03/23 14:05:36;;;;;;;19.48;11.27;;;;;;;;;;6312550;22;19991;-83
2022/03/23 14:08:03;;;;;;;16.38;11.13;;;;;;;;;;6313695;22;19999;-83
2022/03/23 14:10:38;;;;;;;13.75;10.48;;;;;;;;;;6313354;22;19999;-83
2022/03/23 14:13:09;;;;;;;13.75;10.45;;;;;;;;;;6312953;22;20084;-84
2022/03/23 14:15:48;;;;;;;12.95;10.43;;;;;;;;;;6285916;22;20375;-83
2022/03/23 14:18:15;;;;;;;13.45;10.52;;;;;;;;;;6285954;22;20090;-83
2022/03/23 14:20:53;;;;;;;15.07;10.85;;;;;;;;;;6285268;22;20465;-83
2022/03/23 14:23:21;;;;;;;13.23;10.00;;;;;;;;;;6311949;22;19999;-84
2022/03/23 14:25:50;;;;;;;13.93;10.02;;;;;;;;;;6311824;22;19995;-83
2022/03/23 14:28:19;;;;;;;15.60;11.15;;;;;;;;;;6285060;22;20000;-83
2022/03/23 14:30:51;;;;;;;14.10;10.18;;;;;;;;;;6312163;22;20031;-83
2022/03/23 14:33:22;;;;;;;15.18;10.05;;;;;;;;;;6311456;22;20051;-84
2022/03/23 14:35:48;;;;;;;13.10;10.07;;;;;;;;;;6311770;22;20074;-83
2022/03/23 14:38:15;;;;;;;12.18;9.43;;;;;;;;;;6312390;22;19999;-83
2022/03/23 14:40:49;;;;;;;15.00;10.27;;;;;;;;;;6285093;22;20007;-83
2022/03/23 14:43:33;;;;;;;13.30;9.75;;;;;;;;;;6286214;22;20004;-84
2022/03/23 14:46:22;;;;;;;14.57;10.30;;;;;;;;;;6285286;22;20062;-83
2022/03/23 14:49:04;;;;;;;12.80;9.77;;;;;;;;;;6283261;22;20000;-83
2022/03/23 14:51:31;;;;;;;13.25;9.82;;;;;;;;;;6312119;22;20469;-83
2022/03/23 14:53:57;;;;;;;13.93;10.07;;;;;;;;;;6312247;22;20046;-83
2022/03/23 14:56:23;;;;;;;12.98;9.90;;;;;;;;;;6312473;22;19999;-83
2022/03/23 14:58:49;;;;;;;13.98;9.70;;;;;;;;;;6312073;22;20055;-83